Time;durP1;ratioP1;P1;durP2;ratioP2;P2;SDS_P1;SDS_P2;PMS_P1;PMS_P2;Temp;Humidity;BMP_temperature;BMP_pressure;BME280_temperature;BME280_humidity;BME280_pressure;Samples;Min_cycle;Max_cycle;Signal;HPM_P1;HPM_P2
2021/10/04 00:00:17;;;;;;;1.80;1.80;;;15.30;56.80;;;;;;5053452;28;20263;-83
2021/10/04 00:02:43;;;;;;;2.30;2.10;;;15.30;58.00;;;;;;5053440;28;20569;-84
2021/10/04 00:05:10;;;;;;;2.10;2.00;;;15.20;58.70;;;;;;5054440;28;20419;-84
2021/10/04 00:07:36;;;;;;;2.40;2.30;;;15.20;59.30;;;;;;5053078;28;20195;-83
2021/10/04 00:10:07;;;;;;;2.58;2.30;;;15.20;59.60;;;;;;5052515;28;20431;-84
2021/10/04 00:12:33;;;;;;;1.90;1.90;;;15.10;58.80;;;;;;5053343;28;20167;-83
2021/10/04 00:14:58;;;;;;;2.20;2.10;;;15.20;59.30;;;;;;5053127;28;20422;-84
2021/10/04 00:17:24;;;;;;;1.90;1.80;;;15.10;59.20;;;;;;5052955;28;20259;-84
2021/10/04 00:19:50;;;;;;;2.20;2.10;;;15.10;59.70;;;;;;5053099;28;20216;-83
2021/10/04 00:22:15;;;;;;;2.40;2.30;;;15.10;59.50;;;;;;5052926;28;20247;-84
2021/10/04 00:24:41;;;;;;;1.90;1.80;;;15.00;59.70;;;;;;5053020;28;20183;-84
2021/10/04 00:27:06;;;;;;;2.20;2.10;;;15.00;59.10;;;;;;5052867;28;20216;-83
2021/10/04 00:29:32;;;;;;;2.60;2.50;;;15.00;59.10;;;;;;5052785;28;20230;-83
2021/10/04 00:31:58;;;;;;;2.20;2.10;;;15.00;59.30;;;;;;5052829;28;20245;-84
2021/10/04 00:34:24;;;;;;;2.47;2.37;;;14.90;59.50;;;;;;5053830;28;20520;-83
2021/10/04 00:36:49;;;;;;;2.33;2.13;;;15.00;58.70;;;;;;5052740;28;20179;-83
2021/10/04 00:39:15;;;;;;;2.03;1.90;;;14.90;59.10;;;;;;5052659;28;20180;-84
2021/10/04 00:41:42;;;;;;;2.90;2.70;;;14.90;58.50;;;;;;5052797;28;20459;-84
2021/10/04 00:44:07;;;;;;;2.10;2.00;;;14.90;59.30;;;;;;5052520;28;20187;-84
2021/10/04 00:46:33;;;;;;;2.47;2.27;;;14.90;60.00;;;;;;5052015;28;20414;-84
2021/10/04 00:49:00;;;;;;;2.20;2.10;;;14.80;60.30;;;;;;5051995;28;20583;-84
2021/10/04 00:51:26;;;;;;;2.27;2.17;;;14.80;59.90;;;;;;5052498;28;20204;-83
2021/10/04 00:53:53;;;;;;;1.80;1.70;;;14.80;60.40;;;;;;5052476;28;20415;-83
2021/10/04 00:56:20;;;;;;;2.60;2.50;;;14.70;60.00;;;;;;5052396;28;20430;-84
2021/10/04 00:58:46;;;;;;;2.10;2.00;;;14.70;60.00;;;;;;5052143;28;20414;-84
2021/10/04 01:01:12;;;;;;;2.30;2.17;;;14.70;60.30;;;;;;5052669;28;20472;-84
2021/10/04 01:03:38;;;;;;;2.50;2.40;;;14.70;60.70;;;;;;5052452;28;20423;-84
2021/10/04 01:06:04;;;;;;;2.40;2.30;;;14.70;60.90;;;;;;5052440;28;20187;-84
2021/10/04 01:08:29;;;;;;;2.50;2.40;;;14.70;60.90;;;;;;5052360;28;20246;-83
2021/10/04 01:10:55;;;;;;;2.27;2.00;;;14.70;60.70;;;;;;5051938;28;20562;-84
2021/10/04 01:13:21;;;;;;;2.33;2.23;;;14.60;60.90;;;;;;5052138;28;20180;-84
2021/10/04 01:15:47;;;;;;;2.60;2.50;;;14.70;61.10;;;;;;5052218;28;20505;-84
2021/10/04 01:18:13;;;;;;;2.27;2.17;;;14.60;61.50;;;;;;5051620;28;20887;-84
2021/10/04 01:20:39;;;;;;;2.60;2.40;;;14.60;60.40;;;;;;5051890;28;20237;-84
2021/10/04 01:23:05;;;;;;;2.67;2.57;;;14.60;60.40;;;;;;5051894;28;20187;-84
2021/10/04 01:25:31;;;;;;;2.60;2.40;;;14.60;61.00;;;;;;5051762;28;20318;-83
2021/10/04 01:27:57;;;;;;;2.23;2.10;;;14.60;61.00;;;;;;5051576;28;20415;-84
2021/10/04 01:30:27;;;;;;;2.70;2.60;;;14.60;59.80;;;;;;5051432;28;20465;-84
2021/10/04 01:32:54;;;;;;;2.40;2.30;;;14.60;59.40;;;;;;5051617;28;20458;-84
2021/10/04 01:35:20;;;;;;;2.40;2.30;;;14.60;59.30;;;;;;5051887;28;20414;-84
2021/10/04 01:37:46;;;;;;;2.50;2.40;;;14.60;59.90;;;;;;5051501;28;20911;-84
2021/10/04 01:40:13;;;;;;;2.37;2.27;;;14.60;59.70;;;;;;5051609;28;20433;-84
2021/10/04 01:42:40;;;;;;;4.53;2.57;;;14.60;59.50;;;;;;5051535;28;20544;-84
2021/10/04 01:45:13;;;;;;;2.23;2.13;;;14.60;59.80;;;;;;5051314;28;20858;-83
2021/10/04 01:47:38;;;;;;;2.43;2.33;;;14.60;58.80;;;;;;5051245;28;20427;-84
2021/10/04 01:50:06;;;;;;;2.27;2.17;;;14.60;58.60;;;;;;5051262;28;20462;-84
2021/10/04 01:52:32;;;;;;;2.40;2.30;;;14.50;57.30;;;;;;5051284;28;20176;-84
2021/10/04 01:54:57;;;;;;;2.30;2.20;;;14.50;57.90;;;;;;5051198;28;20427;-83
2021/10/04 01:57:23;;;;;;;2.17;2.07;;;14.40;58.30;;;;;;5050174;28;20176;-84
2021/10/04 01:59:49;;;;;;;2.20;2.10;;;14.40;58.40;;;;;;5050966;28;20176;-84
2021/10/04 02:02:14;;;;;;;2.00;1.90;;;14.40;57.60;;;;;;5051239;28;20207;-84
2021/10/04 02:04:40;;;;;;;2.40;2.30;;;14.30;58.10;;;;;;5051164;28;20202;-84
2021/10/04 02:07:06;;;;;;;2.30;2.20;;;14.30;58.30;;;;;;5050829;28;20596;-84
2021/10/04 02:09:31;;;;;;;2.40;2.30;;;14.30;59.10;;;;;;5051068;28;20275;-84
2021/10/04 02:11:57;;;;;;;2.10;2.00;;;14.20;59.70;;;;;;5051074;28;20237;-84
2021/10/04 02:14:23;;;;;;;2.40;2.30;;;14.30;59.80;;;;;;5051099;28;20414;-84
2021/10/04 02:16:49;;;;;;;2.00;1.90;;;14.20;60.60;;;;;;5053223;28;20183;-84
2021/10/04 02:19:14;;;;;;;2.40;2.30;;;14.20;61.10;;;;;;5051955;28;20179;-83
2021/10/04 02:21:42;;;;;;;2.17;2.07;;;14.10;62.90;;;;;;5051395;28;20243;-84
2021/10/04 02:24:08;;;;;;;2.50;2.40;;;14.10;62.90;;;;;;5050925;28;20393;-83
2021/10/04 02:26:34;;;;;;;2.37;2.27;;;14.10;63.20;;;;;;5050854;28;20422;-84
2021/10/04 02:28:59;;;;;;;2.87;2.60;;;14.00;64.90;;;;;;5050435;28;20780;-84
2021/10/04 02:31:25;;;;;;;2.90;2.80;;;14.00;64.90;;;;;;5050603;28;20218;-83
2021/10/04 02:33:51;;;;;;;2.83;2.63;;;14.00;64.10;;;;;;5050717;28;20472;-83
2021/10/04 02:36:22;;;;;;;2.83;2.40;;;13.90;64.90;;;;;;5050570;28;20222;-84
2021/10/04 02:38:48;;;;;;;2.53;2.43;;;13.90;65.60;;;;;;5050593;28;20184;-84
2021/10/04 02:41:14;;;;;;;2.60;2.50;;;13.80;66.00;;;;;;5050386;28;20560;-83
2021/10/04 02:43:40;;;;;;;2.50;2.40;;;13.80;66.80;;;;;;5050511;28;20215;-84
2021/10/04 02:46:06;;;;;;;2.80;2.50;;;13.70;68.30;;;;;;5050636;28;20465;-84
2021/10/04 02:48:32;;;;;;;2.47;2.37;;;13.70;68.50;;;;;;5050431;28;20854;-83
2021/10/04 02:50:57;;;;;;;2.70;2.60;;;13.80;69.40;;;;;;5050601;28;20211;-84
2021/10/04 02:53:23;;;;;;;2.50;2.40;;;13.70;68.30;;;;;;5050662;28;20914;-84
2021/10/04 02:55:49;;;;;;;2.70;2.60;;;13.60;69.10;;;;;;5050687;28;20263;-83
2021/10/04 02:58:14;;;;;;;2.50;2.40;;;13.60;70.10;;;;;;5050490;28;20172;-83
2021/10/04 03:00:40;;;;;;;2.93;2.60;;;13.50;70.10;;;;;;5050956;28;20272;-84
2021/10/04 03:03:06;;;;;;;2.87;2.77;;;13.60;70.20;;;;;;5050822;28;20184;-84
2021/10/04 03:05:33;;;;;;;2.40;2.30;;;13.50;69.70;;;;;;5050399;28;20179;-84
2021/10/04 03:08:00;;;;;;;2.60;2.50;;;13.50;70.60;;;;;;5050411;28;20422;-84
2021/10/04 03:10:26;;;;;;;2.67;2.57;;;13.50;69.20;;;;;;5054222;28;20507;-83
2021/10/04 03:12:52;;;;;;;2.80;2.53;;;13.50;71.90;;;;;;5054255;28;20414;-83
2021/10/04 03:15:17;;;;;;;3.03;2.93;;;13.40;71.00;;;;;;5054370;28;20194;-83
2021/10/04 03:17:43;;;;;;;2.20;2.10;;;13.40;72.90;;;;;;5054112;28;20589;-84
2021/10/04 03:20:10;;;;;;;2.60;2.50;;;13.40;73.40;;;;;;5054205;28;20208;-83
2021/10/04 03:22:36;;;;;;;2.40;2.30;;;13.50;73.70;;;;;;5054284;28;20187;-84
2021/10/04 03:25:02;;;;;;;2.67;2.57;;;13.50;72.90;;;;;;5054107;28;20414;-83
2021/10/04 03:27:28;;;;;;;2.60;2.50;;;13.50;71.90;;;;;;5054112;28;20459;-83
2021/10/04 03:29:54;;;;;;;2.80;2.60;;;13.60;72.10;;;;;;5053963;28;20800;-83
2021/10/04 03:32:19;;;;;;;2.57;2.47;;;13.40;72.70;;;;;;5054096;28;20442;-83
2021/10/04 03:34:45;;;;;;;2.80;2.70;;;13.40;73.10;;;;;;5054075;28;20263;-83
2021/10/04 03:37:11;;;;;;;3.27;3.10;;;13.40;73.80;;;;;;5053912;28;20199;-83
2021/10/04 03:39:36;;;;;;;2.97;2.87;;;13.40;74.50;;;;;;5053898;28;20203;-84
2021/10/04 03:42:02;;;;;;;2.73;2.63;;;13.40;75.70;;;;;;5053824;28;20183;-84
2021/10/04 03:44:28;;;;;;;3.10;3.00;;;13.50;75.50;;;;;;5053740;28;20237;-84
2021/10/04 03:46:54;;;;;;;3.20;2.87;;;13.50;75.10;;;;;;5053606;28;20414;-84
2021/10/04 03:49:19;;;;;;;2.70;2.60;;;13.50;73.90;;;;;;5053675;28;20230;-84
2021/10/04 03:51:45;;;;;;;3.00;2.90;;;13.40;73.40;;;;;;5053731;28;20254;-83
2021/10/04 03:54:11;;;;;;;2.60;2.50;;;13.50;75.30;;;;;;5054951;28;20213;-84
2021/10/04 03:56:36;;;;;;;3.33;3.13;;;13.60;76.40;;;;;;5053170;28;20187;-84
2021/10/04 03:59:02;;;;;;;2.80;2.70;;;13.60;75.60;;;;;;5053766;28;20245;-84
2021/10/04 04:01:28;;;;;;;2.80;2.70;;;13.50;74.30;;;;;;5053391;28;20652;-83
2021/10/04 04:03:54;;;;;;;2.80;2.70;;;13.40;74.80;;;;;;5053615;28;20179;-84
2021/10/04 04:06:20;;;;;;;2.80;2.70;;;13.40;74.90;;;;;;5053370;28;20183;-83
2021/10/04 04:08:46;;;;;;;2.90;2.80;;;13.40;76.60;;;;;;5053227;28;20422;-84
2021/10/04 04:11:13;;;;;;;3.07;2.97;;;13.40;77.60;;;;;;5053062;28;20353;-83
2021/10/04 04:13:38;;;;;;;2.83;2.73;;;13.40;77.40;;;;;;5053420;28;20418;-83
2021/10/04 04:16:05;;;;;;;3.67;3.00;;;13.40;75.30;;;;;;5053119;28;20423;-84
2021/10/04 04:18:33;;;;;;;2.80;2.70;;;13.40;77.00;;;;;;5052873;28;20186;-84
2021/10/04 04:20:59;;;;;;;6.33;3.30;;;13.40;77.50;;;;;;5052044;28;20801;-83
2021/10/04 04:23:25;;;;;;;3.30;3.20;;;13.30;79.30;;;;;;5052766;28;20423;-83
2021/10/04 04:25:51;;;;;;;3.40;3.27;;;13.30;77.30;;;;;;5053020;28;20191;-83
2021/10/04 04:28:16;;;;;;;3.33;3.23;;;13.30;79.30;;;;;;5052707;28;20211;-84
2021/10/04 04:30:42;;;;;;;3.30;3.20;;;13.20;77.20;;;;;;5052624;28;20745;-83
2021/10/04 04:33:08;;;;;;;2.87;2.77;;;13.20;77.70;;;;;;5052892;28;20198;-83
2021/10/04 04:35:33;;;;;;;2.90;2.80;;;13.30;78.00;;;;;;5052859;28;20176;-83
2021/10/04 04:37:59;;;;;;;2.77;2.67;;;13.20;76.40;;;;;;5052738;28;20176;-83
2021/10/04 04:40:25;;;;;;;2.70;2.60;;;13.20;75.70;;;;;;5052652;28;20187;-83
2021/10/04 04:42:51;;;;;;;2.80;2.60;;;13.10;75.00;;;;;;5053331;28;20198;-83
2021/10/04 04:45:19;;;;;;;3.17;3.07;;;13.10;75.60;;;;;;5053082;28;20184;-83
2021/10/04 04:47:46;;;;;;;3.93;2.63;;;13.00;77.70;;;;;;5052432;28;20180;-83
2021/10/04 04:50:13;;;;;;;2.30;2.20;;;13.10;77.80;;;;;;5052472;28;20811;-84
2021/10/04 04:52:39;;;;;;;2.30;2.20;;;13.10;76.60;;;;;;5052363;28;20415;-83
2021/10/04 04:55:05;;;;;;;2.40;2.30;;;13.10;75.00;;;;;;5052238;28;20418;-84
2021/10/04 04:57:31;;;;;;;2.50;2.40;;;13.10;77.50;;;;;;5052094;28;20406;-84
2021/10/04 04:59:58;;;;;;;2.70;2.50;;;13.10;77.20;;;;;;5052256;28;20433;-83
2021/10/04 05:02:28;;;;;;;3.20;3.10;;;13.10;76.70;;;;;;5052457;28;20187;-83
2021/10/04 05:04:53;;;;;;;2.33;2.33;;;13.10;78.10;;;;;;5052120;28;20426;-83
2021/10/04 05:07:19;;;;;;;2.50;2.40;;;13.10;78.10;;;;;;5051787;28;20421;-83
2021/10/04 05:09:45;;;;;;;2.30;2.20;;;13.10;78.00;;;;;;5053032;28;20647;-83
2021/10/04 05:12:10;;;;;;;2.50;2.40;;;13.10;78.00;;;;;;5052149;28;20175;-83
2021/10/04 05:14:36;;;;;;;2.90;2.70;;;13.00;78.30;;;;;;5051957;28;20610;-83
2021/10/04 05:17:02;;;;;;;2.20;2.10;;;13.00;81.10;;;;;;5051842;28;20172;-83
2021/10/04 05:19:27;;;;;;;2.90;2.80;;;13.00;79.00;;;;;;5051846;28;20187;-83
2021/10/04 05:21:53;;;;;;;3.30;3.03;;;13.00;78.90;;;;;;5051731;28;20418;-83
2021/10/04 05:24:19;;;;;;;2.90;2.70;;;13.00;82.20;;;;;;5051805;28;20176;-83
2021/10/04 05:26:45;;;;;;;2.90;2.80;;;13.00;81.10;;;;;;5051636;28;20520;-83
2021/10/04 05:29:11;;;;;;;3.40;3.27;;;13.00;80.10;;;;;;5051837;28;20473;-83
2021/10/04 05:31:37;;;;;;;3.67;3.37;;;13.10;82.40;;;;;;5051242;28;20458;-83
2021/10/04 05:34:03;;;;;;;3.50;3.30;;;13.10;83.20;;;;;;5051753;28;20187;-83
2021/10/04 05:36:29;;;;;;;3.03;2.90;;;13.10;82.60;;;;;;5051338;28;20949;-83
2021/10/04 05:38:55;;;;;;;3.13;3.03;;;13.10;83.40;;;;;;5051451;28;20182;-83
2021/10/04 05:41:21;;;;;;;3.53;3.33;;;13.10;82.60;;;;;;5051244;28;20430;-83
2021/10/04 05:43:46;;;;;;;3.00;2.90;;;13.10;83.20;;;;;;5051628;28;20184;-83
2021/10/04 05:46:12;;;;;;;3.70;3.50;;;13.00;83.40;;;;;;5051350;28;20270;-83
2021/10/04 05:48:38;;;;;;;3.57;3.37;;;13.00;83.90;;;;;;5051340;28;20195;-83
2021/10/04 05:51:09;;;;;;;3.23;2.93;;;13.10;84.00;;;;;;5051296;28;20196;-83
2021/10/04 05:53:35;;;;;;;4.00;3.80;;;13.10;79.10;;;;;;5051551;28;20523;-83
2021/10/04 05:56:01;;;;;;;3.57;3.37;;;13.00;78.60;;;;;;5051148;28;20817;-83
2021/10/04 05:58:27;;;;;;;3.27;3.17;;;13.10;81.80;;;;;;5051044;28;20418;-83
2021/10/04 06:00:52;;;;;;;3.50;3.20;;;13.10;82.60;;;;;;5051138;28;20188;-82
2021/10/04 06:03:18;;;;;;;3.67;3.47;;;13.00;84.00;;;;;;5050997;28;20180;-82
2021/10/04 06:05:44;;;;;;;3.47;3.27;;;13.00;83.90;;;;;;5050764;28;20187;-82
2021/10/04 06:08:09;;;;;;;4.40;4.20;;;13.00;86.10;;;;;;5050930;28;20172;-82
2021/10/04 06:10:35;;;;;;;4.27;4.07;;;13.00;87.10;;;;;;5050732;28;20570;-82
2021/10/04 06:13:02;;;;;;;4.83;4.43;;;13.00;86.60;;;;;;5050989;28;20176;-82
2021/10/04 06:15:28;;;;;;;3.80;3.60;;;13.00;88.10;;;;;;5050964;28;20179;-82
2021/10/04 06:17:53;;;;;;;4.37;3.97;;;13.00;87.10;;;;;;5050765;28;20411;-82
2021/10/04 06:20:19;;;;;;;4.00;3.70;;;13.00;88.80;;;;;;5050813;28;20778;-82
2021/10/04 06:22:45;;;;;;;4.40;4.10;;;13.00;90.00;;;;;;5050353;28;20732;-82
2021/10/04 06:25:14;;;;;;;4.40;4.20;;;13.10;88.20;;;;;;5050793;28;20509;-82
2021/10/04 06:27:41;;;;;;;3.60;3.50;;;13.00;86.30;;;;;;5050841;28;20180;-82
2021/10/04 06:30:08;;;;;;;3.50;3.30;;;12.90;88.20;;;;;;5050573;28;20454;-82
2021/10/04 06:32:35;;;;;;;3.87;3.67;;;12.80;85.90;;;;;;5050598;28;20434;-83
2021/10/04 06:35:01;;;;;;;4.03;3.83;;;12.90;87.60;;;;;;5050554;28;20468;-82
2021/10/04 06:37:26;;;;;;;4.40;4.10;;;12.90;87.60;;;;;;5050456;28;20410;-83
2021/10/04 06:39:52;;;;;;;4.10;3.90;;;12.90;86.80;;;;;;5050646;28;20652;-82
2021/10/04 06:42:17;;;;;;;4.43;4.13;;;12.80;87.00;;;;;;5050713;28;20274;-82
2021/10/04 06:44:43;;;;;;;3.80;3.70;;;12.80;88.60;;;;;;5050075;28;20180;-82
2021/10/04 06:47:09;;;;;;;3.50;3.40;;;12.90;89.10;;;;;;5050481;28;20275;-82
2021/10/04 06:49:35;;;;;;;4.40;4.20;;;12.90;89.00;;;;;;5050632;28;20187;-82
2021/10/04 06:52:02;;;;;;;4.60;4.40;;;12.90;87.10;;;;;;5050833;28;20176;-83
2021/10/04 06:54:28;;;;;;;3.93;3.63;;;12.90;87.50;;;;;;5050948;28;20186;-82
2021/10/04 06:56:54;;;;;;;4.13;3.93;;;12.90;87.50;;;;;;5052379;28;20505;-82
2021/10/04 06:59:20;;;;;;;4.60;4.30;;;12.90;87.20;;;;;;5050525;28;20234;-83
2021/10/04 07:01:45;;;;;;;4.53;4.23;;;13.00;86.10;;;;;;5050740;28;20184;-83
2021/10/04 07:04:11;;;;;;;4.70;4.40;;;13.00;88.20;;;;;;5050472;28;20640;-83
2021/10/04 07:06:36;;;;;;;5.30;5.00;;;12.90;88.70;;;;;;5050515;28;20233;-83
2021/10/04 07:09:02;;;;;;;6.47;6.07;;;13.00;88.70;;;;;;5051561;28;20640;-83
2021/10/04 07:11:28;;;;;;;6.57;6.13;;;13.00;88.80;;;;;;5051113;28;20572;-83
2021/10/04 07:13:54;;;;;;;7.13;6.63;;;13.00;87.90;;;;;;5050571;28;20508;-83
2021/10/04 07:16:20;;;;;;;6.67;6.13;;;13.00;88.80;;;;;;5050504;28;20437;-82
2021/10/04 07:18:45;;;;;;;6.57;6.13;;;13.00;90.20;;;;;;5052342;28;20426;-83
2021/10/04 07:21:11;;;;;;;7.10;6.70;;;13.00;90.30;;;;;;5051485;28;20551;-83
2021/10/04 07:23:38;;;;;;;7.50;7.00;;;13.00;90.20;;;;;;5050557;28;20644;-83
2021/10/04 07:26:04;;;;;;;6.97;6.50;;;13.00;89.50;;;;;;5050554;28;20904;-83
2021/10/04 07:28:30;;;;;;;7.90;7.40;;;13.00;90.90;;;;;;5050752;28;20510;-83
2021/10/04 07:30:56;;;;;;;7.40;7.00;;;13.00;87.80;;;;;;5050651;28;20568;-83
2021/10/04 07:33:23;;;;;;;7.50;7.10;;;13.00;88.80;;;;;;5050705;28;20179;-83
2021/10/04 07:35:50;;;;;;;7.93;7.40;;;13.00;87.60;;;;;;5050542;28;20451;-83
2021/10/04 07:38:17;;;;;;;6.60;6.20;;;13.00;88.30;;;;;;5051006;28;20419;-82
2021/10/04 07:40:42;;;;;;;6.07;5.77;;;13.10;88.90;;;;;;5050289;28;20430;-83
2021/10/04 07:43:08;;;;;;;6.73;6.33;;;13.10;89.50;;;;;;5050255;28;20488;-83
2021/10/04 07:45:35;;;;;;;7.13;6.63;;;13.10;88.60;;;;;;5050064;28;20180;-83
2021/10/04 07:48:00;;;;;;;7.17;6.60;;;13.00;88.90;;;;;;5050068;28;20263;-83
2021/10/04 07:50:26;;;;;;;7.70;7.20;;;13.00;90.00;;;;;;5050298;28;20918;-83
2021/10/04 07:52:52;;;;;;;7.63;7.17;;;13.10;90.60;;;;;;5050107;28;20411;-83
2021/10/04 07:55:19;;;;;;;6.40;6.10;;;13.10;90.10;;;;;;5050611;28;20547;-83
2021/10/04 07:57:48;;;;;;;6.70;6.33;;;13.00;90.10;;;;;;5053570;28;20176;-86
2021/10/04 08:00:15;;;;;;;7.10;6.70;;;12.90;90.00;;;;;;5053464;28;20509;-86
2021/10/04 08:02:41;;;;;;;7.63;7.23;;;13.00;91.10;;;;;;5053788;28;20491;-86
2021/10/04 08:05:07;;;;;;;7.13;6.83;;;12.90;90.20;;;;;;5053524;28;20419;-85
2021/10/04 08:07:33;;;;;;;9.17;8.60;;;12.90;90.70;;;;;;5053171;28;20778;-83
2021/10/04 08:09:59;;;;;;;10.30;9.80;;;12.90;91.50;;;;;;5053085;28;20462;-83
2021/10/04 08:12:25;;;;;;;10.60;10.00;;;12.90;91.80;;;;;;5053261;28;20422;-83
2021/10/04 08:14:52;;;;;;;10.10;9.60;;;12.90;91.30;;;;;;5053020;28;20184;-83
2021/10/04 08:17:18;;;;;;;10.07;9.67;;;12.90;91.60;;;;;;5053053;28;20426;-83
2021/10/04 08:19:44;;;;;;;9.80;9.30;;;12.90;91.90;;;;;;5054381;28;20415;-83
2021/10/04 08:22:10;;;;;;;10.30;9.60;;;12.90;91.70;;;;;;5053144;28;20211;-83
2021/10/04 08:24:36;;;;;;;10.40;9.90;;;12.90;92.30;;;;;;5053079;28;20512;-83
2021/10/04 08:27:02;;;;;;;10.40;10.00;;;12.90;92.00;;;;;;5053005;28;20183;-83
2021/10/04 08:29:27;;;;;;;10.53;9.97;;;12.90;92.40;;;;;;5052885;28;20179;-84
2021/10/04 08:31:53;;;;;;;10.10;9.60;;;12.90;93.00;;;;;;5052898;28;20480;-85
2021/10/04 08:34:19;;;;;;;10.80;10.07;;;12.90;93.30;;;;;;5054500;28;20580;-86
2021/10/04 08:36:45;;;;;;;10.07;9.67;;;12.90;91.10;;;;;;5052527;28;20271;-86
2021/10/04 08:39:10;;;;;;;9.33;8.93;;;13.00;93.10;;;;;;5052993;28;20671;-86
2021/10/04 08:41:38;;;;;;;9.90;9.40;;;12.90;91.50;;;;;;5052764;28;20176;-86
2021/10/04 08:44:12;;;;;;;9.57;8.87;;;12.90;91.00;;;;;;5052580;28;20596;-86
2021/10/04 08:46:41;;;;;;;8.10;7.70;;;12.80;91.00;;;;;;5052300;28;20422;-85
2021/10/04 08:49:08;;;;;;;8.73;8.43;;;12.80;86.00;;;;;;5052638;28;20426;-86
2021/10/04 08:51:34;;;;;;;8.50;8.17;;;12.80;91.10;;;;;;5052440;28;20835;-86
2021/10/04 08:54:01;;;;;;;9.30;8.80;;;12.90;92.20;;;;;;5052482;28;20828;-86
2021/10/04 08:56:27;;;;;;;9.43;8.90;;;12.80;91.00;;;;;;5052275;28;20421;-85
2021/10/04 08:58:53;;;;;;;9.03;8.63;;;12.80;91.80;;;;;;5052265;28;20422;-86
2021/10/04 09:01:23;;;;;;;10.10;9.50;;;12.90;91.90;;;;;;5052674;28;20191;-86
2021/10/04 09:03:53;;;;;;;9.70;9.30;;;12.80;91.80;;;;;;5052397;28;20191;-86
2021/10/04 09:06:34;;;;;;;9.97;9.53;;;12.90;91.90;;;;;;5051682;28;20426;-85
2021/10/04 09:09:07;;;;;;;10.37;9.87;;;12.90;92.00;;;;;;5051809;28;20426;-86
2021/10/04 09:11:41;;;;;;;10.20;9.70;;;12.90;91.90;;;;;;5051322;28;20520;-86
2021/10/04 09:14:16;;;;;;;10.77;10.27;;;12.90;91.50;;;;;;5052117;28;20179;-86
2021/10/04 09:16:59;;;;;;;10.60;10.20;;;13.00;92.20;;;;;;5051770;28;20497;-86
2021/10/04 09:19:35;;;;;;;10.73;10.23;;;12.90;91.00;;;;;;5052295;28;20414;-85
2021/10/04 09:22:17;;;;;;;10.17;9.67;;;12.90;92.20;;;;;;5052040;28;20782;-85
2021/10/04 09:25:01;;;;;;;10.50;10.10;;;13.00;92.10;;;;;;5052234;28;20403;-86
2021/10/04 09:27:38;;;;;;;11.20;10.70;;;12.90;89.80;;;;;;5052089;28;20421;-85
2021/10/04 09:30:15;;;;;;;9.90;9.50;;;12.90;91.10;;;;;;5051680;28;20871;-85
2021/10/04 09:32:49;;;;;;;8.70;8.30;;;13.00;91.20;;;;;;5053582;28;20555;-85
2021/10/04 09:35:18;;;;;;;8.60;8.20;;;13.00;89.40;;;;;;5052075;28;20411;-86
2021/10/04 09:37:46;;;;;;;8.10;7.80;;;13.00;90.10;;;;;;5051497;28;20407;-85
2021/10/04 09:40:36;;;;;;;9.00;8.60;;;13.00;91.20;;;;;;5051357;28;20414;-85
2021/10/04 09:43:06;;;;;;;9.00;8.50;;;13.00;90.30;;;;;;5051632;28;20821;-85
2021/10/04 09:45:33;;;;;;;8.83;8.43;;;13.00;90.40;;;;;;5051375;28;20421;-86
2021/10/04 09:48:08;;;;;;;7.97;7.57;;;13.00;91.60;;;;;;5051565;28;20862;-86
2021/10/04 09:50:34;;;;;;;8.97;8.67;;;13.00;90.70;;;;;;5051459;28;20536;-86
2021/10/04 09:53:03;;;;;;;8.03;7.60;;;13.10;91.20;;;;;;5051271;28;20472;-84
2021/10/04 09:55:31;;;;;;;7.70;7.40;;;13.10;91.50;;;;;;5051274;28;20168;-86
2021/10/04 09:58:00;;;;;;;7.30;7.00;;;13.10;91.60;;;;;;5051062;28;20421;-85
2021/10/04 10:00:27;;;;;;;7.57;7.27;;;13.10;90.60;;;;;;5051269;28;20517;-85
2021/10/04 10:02:56;;;;;;;7.50;7.00;;;13.10;90.50;;;;;;5051426;28;20467;-85
2021/10/04 10:05:27;;;;;;;7.63;7.23;;;13.10;90.90;;;;;;5051099;28;20422;-86
2021/10/04 10:07:54;;;;;;;8.00;7.73;;;13.20;91.00;;;;;;5051070;28;20464;-86
2021/10/04 10:10:20;;;;;;;8.57;8.17;;;13.10;90.50;;;;;;5051028;28;20473;-85
2021/10/04 10:12:46;;;;;;;7.67;7.40;;;13.10;91.30;;;;;;5052396;28;20767;-86
2021/10/04 10:15:18;;;;;;;8.50;8.20;;;13.20;92.30;;;;;;5051065;28;20425;-85
2021/10/04 10:17:46;;;;;;;8.17;7.87;;;13.30;91.70;;;;;;5050319;28;20774;-85
2021/10/04 10:20:19;;;;;;;7.20;6.90;;;13.20;91.70;;;;;;5052196;28;20479;-85
2021/10/04 10:22:52;;;;;;;7.83;7.53;;;13.30;91.40;;;;;;5051082;28;20517;-86
2021/10/04 10:25:33;;;;;;;7.07;6.87;;;13.30;90.60;;;;;;5051016;28;20426;-85
2021/10/04 10:27:59;;;;;;;7.00;6.80;;;13.30;88.40;;;;;;5050803;28;20410;-85
2021/10/04 10:30:26;;;;;;;8.60;8.30;;;13.20;84.10;;;;;;5051959;28;20457;-85
2021/10/04 10:32:54;;;;;;;8.30;7.90;;;13.30;87.70;;;;;;5051005;28;20176;-85
2021/10/04 10:35:47;;;;;;;7.20;7.00;;;13.40;89.80;;;;;;5051027;28;20429;-85
2021/10/04 10:38:14;;;;;;;7.00;6.80;;;13.40;90.50;;;;;;5051422;28;20418;-85
2021/10/04 10:40:40;;;;;;;7.00;6.70;;;13.30;90.00;;;;;;5050371;28;20777;-85
2021/10/04 10:43:09;;;;;;;6.37;6.17;;;13.30;88.50;;;;;;5051073;28;20180;-85
2021/10/04 10:45:37;;;;;;;7.50;7.30;;;13.30;89.20;;;;;;5050697;28;20457;-85
2021/10/04 10:48:04;;;;;;;7.80;7.50;;;13.30;90.10;;;;;;5050558;28;20468;-85
2021/10/04 10:50:39;;;;;;;9.07;8.70;;;13.40;90.50;;;;;;5050682;28;20450;-85
2021/10/04 10:53:10;;;;;;;6.63;6.37;;;13.40;89.10;;;;;;5050584;28;20511;-85
2021/10/04 10:55:38;;;;;;;7.37;7.17;;;13.30;88.20;;;;;;5051029;28;20453;-85
2021/10/04 10:58:07;;;;;;;9.53;8.93;;;13.40;90.90;;;;;;5050266;28;20419;-85
2021/10/04 11:00:42;;;;;;;6.13;5.93;;;13.40;89.80;;;;;;5050570;28;20501;-86
2021/10/04 11:03:20;;;;;;;5.80;5.60;;;13.40;87.20;;;;;;5051836;28;20409;-86
2021/10/04 11:06:07;;;;;;;6.30;6.10;;;13.30;84.30;;;;;;5050479;28;20434;-85
2021/10/04 11:08:47;;;;;;;5.63;5.53;;;13.30;85.30;;;;;;5050258;28;20454;-86
2021/10/04 11:11:15;;;;;;;6.30;6.10;;;13.20;81.70;;;;;;5050468;28;20476;-85
2021/10/04 11:14:08;;;;;;;6.50;6.30;;;13.20;83.70;;;;;;5050301;28;20414;-86
2021/10/04 11:16:36;;;;;;;6.23;6.03;;;13.20;82.10;;;;;;5046225;28;20560;-85
2021/10/04 11:19:03;;;;;;;6.20;5.97;;;13.20;83.40;;;;;;5050411;28;20445;-86
2021/10/04 11:21:30;;;;;;;6.60;6.40;;;13.20;79.60;;;;;;5050330;28;20893;-86
2021/10/04 11:23:59;;;;;;;6.57;6.37;;;13.20;83.50;;;;;;5050378;28;20414;-86
2021/10/04 11:26:26;;;;;;;7.77;7.57;;;13.20;86.00;;;;;;5050201;28;20422;-83
2021/10/04 11:28:58;;;;;;;6.57;6.27;;;13.30;89.80;;;;;;5050035;28;20419;-83
2021/10/04 11:31:35;;;;;;;6.80;6.40;;;13.30;88.00;;;;;;5053937;28;20628;-84
2021/10/04 11:34:05;;;;;;;6.30;6.10;;;13.30;87.20;;;;;;5054219;28;20410;-83
2021/10/04 11:36:34;;;;;;;6.20;5.90;;;13.30;86.30;;;;;;5054005;28;20410;-83
2021/10/04 11:39:28;;;;;;;6.90;6.60;;;13.30;89.00;;;;;;5053649;28;20499;-83
2021/10/04 11:42:14;;;;;;;6.63;6.37;;;13.40;88.60;;;;;;5053982;28;20457;-83
2021/10/04 11:44:43;;;;;;;5.80;5.50;;;13.40;88.80;;;;;;5053813;28;20757;-83
2021/10/04 11:47:10;;;;;;;5.70;5.50;;;13.40;88.60;;;;;;5053426;28;20419;-82
2021/10/04 11:49:38;;;;;;;5.63;5.43;;;13.40;85.10;;;;;;5053619;28;20838;-83
2021/10/04 11:52:16;;;;;;;6.50;6.20;;;13.50;81.60;;;;;;5053523;28;20458;-83
2021/10/04 11:54:52;;;;;;;7.43;7.03;;;13.40;83.60;;;;;;5053647;28;20418;-83
2021/10/04 11:57:20;;;;;;;6.23;5.87;;;13.50;85.00;;;;;;5053346;28;20418;-83
2021/10/04 11:59:54;;;;;;;10.43;9.67;;;13.50;81.80;;;;;;5054637;28;20425;-83
2021/10/04 12:02:28;;;;;;;8.87;8.10;;;13.60;85.40;;;;;;5053575;28;20410;-84
2021/10/04 12:05:18;;;;;;;6.93;5.73;;;13.70;88.00;;;;;;5053632;28;20498;-83
2021/10/04 12:08:14;;;;;;;6.57;6.27;;;13.70;83.70;;;;;;5055296;28;20438;-83
2021/10/04 12:10:42;;;;;;;5.83;5.53;;;13.80;84.60;;;;;;5045316;28;20465;-83
2021/10/04 12:13:20;;;;;;;6.03;5.73;;;13.70;81.80;;;;;;5053206;28;20474;-83
2021/10/04 12:15:47;;;;;;;6.90;6.60;;;13.80;82.30;;;;;;5053244;28;20780;-83
2021/10/04 12:18:22;;;;;;;6.90;6.50;;;13.80;81.10;;;;;;5053089;28;20423;-83
2021/10/04 12:20:49;;;;;;;6.27;6.07;;;13.80;83.50;;;;;;5052937;28;20433;-83
2021/10/04 12:23:24;;;;;;;6.30;5.80;;;13.80;83.00;;;;;;5053420;28;20419;-83
2021/10/04 12:25:53;;;;;;;6.00;5.80;;;13.80;83.50;;;;;;5053019;28;20497;-83
2021/10/04 12:28:20;;;;;;;6.20;5.90;;;13.80;83.00;;;;;;5052767;28;20419;-84
2021/10/04 12:30:51;;;;;;;6.20;5.80;;;13.70;79.80;;;;;;5052715;28;20486;-83
2021/10/04 12:33:17;;;;;;;6.07;5.87;;;13.60;77.40;;;;;;5052849;28;20419;-83
2021/10/04 12:35:43;;;;;;;6.88;6.57;;;13.70;80.50;;;;;;5052978;28;20309;-83
2021/10/04 12:38:17;;;;;;;6.70;6.50;;;13.60;78.60;;;;;;5052490;28;20172;-83
2021/10/04 12:40:47;;;;;;;6.50;6.27;;;13.60;81.30;;;;;;5052371;28;20188;-83
2021/10/04 12:43:15;;;;;;;6.50;6.30;;;13.50;75.80;;;;;;5052506;28;20420;-84
2021/10/04 12:45:55;;;;;;;7.20;6.70;;;13.50;74.60;;;;;;5052536;28;20480;-81
2021/10/04 12:48:21;;;;;;;6.03;5.83;;;13.60;77.30;;;;;;5052271;28;20922;-83